sensor_id;sensor_type;location;lat;lon;timestamp;pressure;altitude;pressure_sealevel;temperature;humidity
64141;BME280;50436;50.618;7.932;2022-08-16T00:01:29;95823.75;;;17.48;100.00
64141;BME280;50436;50.618;7.932;2022-08-16T00:03:55;95820.25;;;17.48;100.00
64141;BME280;50436;50.618;7.932;2022-08-16T00:06:21;95826.72;;;17.38;100.00
64141;BME280;50436;50.618;7.932;2022-08-16T00:08:47;95831.50;;;17.41;100.00
64141;BME280;50436;50.618;7.932;2022-08-16T00:11:13;95830.84;;;17.36;100.00
64141;BME280;50436;50.618;7.932;2022-08-16T00:13:38;95829.69;;;17.28;100.00
64141;BME280;50436;50.618;7.932;2022-08-16T00:16:04;95838.75;;;17.32;100.00
64141;BME280;50436;50.618;7.932;2022-08-16T00:18:30;95841.16;;;17.34;100.00
64141;BME280;50436;50.618;7.932;2022-08-16T00:20:56;95838.66;;;17.37;100.00
64141;BME280;50436;50.618;7.932;2022-08-16T00:23:22;95843.91;;;17.42;100.00
64141;BME280;50436;50.618;7.932;2022-08-16T00:25:47;95847.63;;;17.46;100.00
64141;BME280;50436;50.618;7.932;2022-08-16T00:28:13;95843.25;;;17.37;100.00
64141;BME280;50436;50.618;7.932;2022-08-16T00:30:39;95851.97;;;17.34;100.00
64141;BME280;50436;50.618;7.932;2022-08-16T00:33:04;95843.53;;;17.35;100.00
64141;BME280;50436;50.618;7.932;2022-08-16T00:35:33;95840.50;;;17.28;100.00
64141;BME280;50436;50.618;7.932;2022-08-16T00:38:00;95841.94;;;17.34;100.00
64141;BME280;50436;50.618;7.932;2022-08-16T00:40:44;95840.56;;;17.37;100.00
64141;BME280;50436;50.618;7.932;2022-08-16T00:43:19;95839.13;;;17.39;100.00
64141;BME280;50436;50.618;7.932;2022-08-16T00:48:32;95836.84;;;17.33;100.00
64141;BME280;50436;50.618;7.932;2022-08-16T00:51:02;95841.16;;;17.34;100.00
64141;BME280;50436;50.618;7.932;2022-08-16T00:53:28;95835.44;;;17.35;100.00
64141;BME280;50436;50.618;7.932;2022-08-16T00:55:56;95844.06;;;17.37;100.00
64141;BME280;50436;50.618;7.932;2022-08-16T00:58:30;95842.94;;;17.38;100.00
64141;BME280;50436;50.618;7.932;2022-08-16T01:00:56;95838.34;;;17.39;100.00
64141;BME280;50436;50.618;7.932;2022-08-16T01:03:25;95830.59;;;17.46;100.00
64141;BME280;50436;50.618;7.932;2022-08-16T01:05:53;95831.88;;;17.48;100.00
64141;BME280;50436;50.618;7.932;2022-08-16T01:08:21;95837.78;;;17.50;100.00
64141;BME280;50436;50.618;7.932;2022-08-16T01:10:49;95827.91;;;17.46;100.00
64141;BME280;50436;50.618;7.932;2022-08-16T01:13:21;95828.06;;;17.49;100.00
64141;BME280;50436;50.618;7.932;2022-08-16T01:16:10;95830.50;;;17.51;100.00
64141;BME280;50436;50.618;7.932;2022-08-16T01:18:44;95839.19;;;17.48;100.00
64141;BME280;50436;50.618;7.932;2022-08-16T01:24:27;95839.81;;;17.45;100.00
64141;BME280;50436;50.618;7.932;2022-08-16T01:26:59;95838.41;;;17.47;100.00
64141;BME280;50436;50.618;7.932;2022-08-16T01:29:36;95846.81;;;17.46;100.00
64141;BME280;50436;50.618;7.932;2022-08-16T01:32:02;95843.44;;;17.40;100.00
64141;BME280;50436;50.618;7.932;2022-08-16T01:34:28;95849.63;;;17.41;100.00
64141;BME280;50436;50.618;7.932;2022-08-16T01:37:00;95840.34;;;17.33;100.00
64141;BME280;50436;50.618;7.932;2022-08-16T01:39:27;95838.19;;;17.21;100.00
64141;BME280;50436;50.618;7.932;2022-08-16T01:41:53;95847.88;;;17.00;100.00
64141;BME280;50436;50.618;7.932;2022-08-16T01:44:18;95847.28;;;16.89;100.00
64141;BME280;50436;50.618;7.932;2022-08-16T01:46:46;95841.88;;;16.89;100.00
64141;BME280;50436;50.618;7.932;2022-08-16T01:49:24;95839.84;;;16.95;100.00
64141;BME280;50436;50.618;7.932;2022-08-16T01:52:03;95837.56;;;16.88;100.00
64141;BME280;50436;50.618;7.932;2022-08-16T01:54:49;95847.09;;;16.86;100.00
64141;BME280;50436;50.618;7.932;2022-08-16T01:57:15;95841.34;;;17.01;100.00
64141;BME280;50436;50.618;7.932;2022-08-16T01:59:40;95847.47;;;16.93;100.00
64141;BME280;50436;50.618;7.932;2022-08-16T02:02:08;95844.84;;;17.02;100.00
64141;BME280;50436;50.618;7.932;2022-08-16T02:04:34;95840.53;;;17.14;100.00
64141;BME280;50436;50.618;7.932;2022-08-16T02:07:00;95835.81;;;17.20;100.00
64141;BME280;50436;50.618;7.932;2022-08-16T02:09:30;95831.00;;;17.17;100.00
64141;BME280;50436;50.618;7.932;2022-08-16T02:11:58;95841.56;;;17.05;100.00
64141;BME280;50436;50.618;7.932;2022-08-16T02:14:27;95821.41;;;17.11;100.00
64141;BME280;50436;50.618;7.932;2022-08-16T02:16:56;95819.00;;;17.09;100.00
64141;BME280;50436;50.618;7.932;2022-08-16T02:19:25;95816.94;;;16.92;100.00
64141;BME280;50436;50.618;7.932;2022-08-16T02:21:53;95814.88;;;16.89;100.00
64141;BME280;50436;50.618;7.932;2022-08-16T02:24:19;95819.56;;;16.84;100.00
64141;BME280;50436;50.618;7.932;2022-08-16T02:26:48;95816.66;;;16.80;100.00
64141;BME280;50436;50.618;7.932;2022-08-16T02:29:14;95820.19;;;16.67;100.00
64141;BME280;50436;50.618;7.932;2022-08-16T02:31:44;95820.38;;;16.57;100.00
64141;BME280;50436;50.618;7.932;2022-08-16T02:34:09;95830.28;;;16.61;100.00
64141;BME280;50436;50.618;7.932;2022-08-16T02:36:39;95825.69;;;16.62;100.00
64141;BME280;50436;50.618;7.932;2022-08-16T02:39:06;95819.38;;;16.53;100.00
64141;BME280;50436;50.618;7.932;2022-08-16T02:41:34;95827.31;;;16.35;100.00
64141;BME280;50436;50.618;7.932;2022-08-16T02:44:03;95819.19;;;16.22;100.00
64141;BME280;50436;50.618;7.932;2022-08-16T02:46:30;95814.78;;;16.26;100.00
64141;BME280;50436;50.618;7.932;2022-08-16T02:48:57;95828.06;;;16.08;100.00
64141;BME280;50436;50.618;7.932;2022-08-16T02:51:23;95823.66;;;15.99;100.00
64141;BME280;50436;50.618;7.932;2022-08-16T02:53:48;95823.28;;;16.05;100.00
64141;BME280;50436;50.618;7.932;2022-08-16T02:56:16;95829.44;;;15.92;100.00
64141;BME280;50436;50.618;7.932;2022-08-16T02:58:48;95817.38;;;15.90;100.00
64141;BME280;50436;50.618;7.932;2022-08-16T03:01:19;95831.31;;;15.78;100.00
64141;BME280;50436;50.618;7.932;2022-08-16T03:03:47;95835.59;;;15.65;100.00
64141;BME280;50436;50.618;7.932;2022-08-16T03:06:14;95840.59;;;15.53;100.00
64141;BME280;50436;50.618;7.932;2022-08-16T03:08:47;95839.00;;;15.52;100.00
64141;BME280;50436;50.618;7.932;2022-08-16T03:11:14;95840.75;;;15.62;100.00
64141;BME280;50436;50.618;7.932;2022-08-16T03:13:46;95831.00;;;15.66;100.00
64141;BME280;50436;50.618;7.932;2022-08-16T03:16:12;95832.50;;;15.72;100.00
64141;BME280;50436;50.618;7.932;2022-08-16T03:18:39;95829.53;;;15.54;100.00
64141;BME280;50436;50.618;7.932;2022-08-16T03:21:05;95822.09;;;15.46;100.00
64141;BME280;50436;50.618;7.932;2022-08-16T03:23:32;95832.59;;;15.48;100.00
64141;BME280;50436;50.618;7.932;2022-08-16T03:25:58;95835.47;;;15.38;100.00
64141;BME280;50436;50.618;7.932;2022-08-16T03:28:24;95840.84;;;15.38;100.00
64141;BME280;50436;50.618;7.932;2022-08-16T03:30:50;95833.66;;;15.33;100.00
64141;BME280;50436;50.618;7.932;2022-08-16T03:33:16;95824.84;;;15.27;100.00
64141;BME280;50436;50.618;7.932;2022-08-16T03:35:51;95828.78;;;15.16;100.00
64141;BME280;50436;50.618;7.932;2022-08-16T03:38:21;95836.56;;;14.99;100.00
64141;BME280;50436;50.618;7.932;2022-08-16T03:40:50;95842.56;;;14.96;100.00
64141;BME280;50436;50.618;7.932;2022-08-16T03:43:18;95838.03;;;15.10;100.00
64141;BME280;50436;50.618;7.932;2022-08-16T03:45:45;95835.75;;;15.17;100.00
64141;BME280;50436;50.618;7.932;2022-08-16T03:48:11;95839.56;;;15.16;100.00
64141;BME280;50436;50.618;7.932;2022-08-16T03:50:37;95829.38;;;15.13;100.00
64141;BME280;50436;50.618;7.932;2022-08-16T03:53:04;95828.69;;;15.21;100.00
64141;BME280;50436;50.618;7.932;2022-08-16T03:55:30;95827.41;;;15.19;100.00
64141;BME280;50436;50.618;7.932;2022-08-16T03:57:56;95835.19;;;15.20;100.00
64141;BME280;50436;50.618;7.932;2022-08-16T04:00:30;95847.78;;;15.25;100.00
64141;BME280;50436;50.618;7.932;2022-08-16T04:02:59;95844.38;;;15.19;100.00
64141;BME280;50436;50.618;7.932;2022-08-16T04:05:34;95852.38;;;15.05;100.00
64141;BME280;50436;50.618;7.932;2022-08-16T04:08:02;95851.53;;;15.10;100.00
64141;BME280;50436;50.618;7.932;2022-08-16T04:10:28;95849.03;;;14.95;100.00
64141;BME280;50436;50.618;7.932;2022-08-16T04:12:56;95842.84;;;14.94;100.00
64141;BME280;50436;50.618;7.932;2022-08-16T04:15:22;95843.22;;;14.88;100.00
64141;BME280;50436;50.618;7.932;2022-08-16T04:18:00;95860.38;;;14.92;100.00
64141;BME280;50436;50.618;7.932;2022-08-16T04:20:26;95857.03;;;15.00;100.00
64141;BME280;50436;50.618;7.932;2022-08-16T04:22:52;95855.13;;;15.00;100.00
64141;BME280;50436;50.618;7.932;2022-08-16T04:25:19;95858.72;;;14.96;100.00
64141;BME280;50436;50.618;7.932;2022-08-16T04:27:45;95864.66;;;14.93;100.00
64141;BME280;50436;50.618;7.932;2022-08-16T04:30:14;95874.13;;;14.90;100.00
64141;BME280;50436;50.618;7.932;2022-08-16T04:32:46;95873.97;;;14.82;100.00
64141;BME280;50436;50.618;7.932;2022-08-16T04:35:16;95869.44;;;14.77;100.00
64141;BME280;50436;50.618;7.932;2022-08-16T04:37:47;95872.94;;;14.77;100.00
64141;BME280;50436;50.618;7.932;2022-08-16T04:40:19;95874.28;;;14.80;100.00
64141;BME280;50436;50.618;7.932;2022-08-16T04:42:50;95877.47;;;14.82;100.00
64141;BME280;50436;50.618;7.932;2022-08-16T04:45:16;95879.31;;;14.87;100.00
64141;BME280;50436;50.618;7.932;2022-08-16T04:47:43;95877.34;;;14.92;100.00
64141;BME280;50436;50.618;7.932;2022-08-16T04:50:21;95876.19;;;14.98;100.00
64141;BME280;50436;50.618;7.932;2022-08-16T04:53:02;95875.47;;;15.12;100.00
64141;BME280;50436;50.618;7.932;2022-08-16T04:55:31;95879.81;;;15.08;100.00
64141;BME280;50436;50.618;7.932;2022-08-16T04:57:57;95876.13;;;15.03;100.00
64141;BME280;50436;50.618;7.932;2022-08-16T05:00:27;95884.41;;;15.07;100.00
64141;BME280;50436;50.618;7.932;2022-08-16T05:03:05;95886.25;;;15.12;100.00
64141;BME280;50436;50.618;7.932;2022-08-16T05:05:38;95875.91;;;15.19;100.00
64141;BME280;50436;50.618;7.932;2022-08-16T05:08:04;95871.75;;;15.26;100.00
64141;BME280;50436;50.618;7.932;2022-08-16T05:10:31;95876.91;;;15.23;100.00
64141;BME280;50436;50.618;7.932;2022-08-16T05:12:57;95877.34;;;15.30;100.00
64141;BME280;50436;50.618;7.932;2022-08-16T05:15:23;95880.03;;;15.30;100.00
64141;BME280;50436;50.618;7.932;2022-08-16T05:17:49;95880.34;;;15.28;100.00
64141;BME280;50436;50.618;7.932;2022-08-16T05:20:15;95888.88;;;15.36;100.00
64141;BME280;50436;50.618;7.932;2022-08-16T05:22:41;95882.81;;;15.44;100.00
64141;BME280;50436;50.618;7.932;2022-08-16T05:25:13;95891.63;;;15.49;100.00
64141;BME280;50436;50.618;7.932;2022-08-16T05:27:44;95894.03;;;15.51;100.00
64141;BME280;50436;50.618;7.932;2022-08-16T05:30:13;95898.25;;;15.57;100.00
64141;BME280;50436;50.618;7.932;2022-08-16T05:32:41;95895.34;;;15.72;100.00
64141;BME280;50436;50.618;7.932;2022-08-16T05:35:09;95898.88;;;15.86;100.00
64141;BME280;50436;50.618;7.932;2022-08-16T05:37:37;95906.81;;;15.97;100.00
64141;BME280;50436;50.618;7.932;2022-08-16T05:40:06;95901.16;;;16.12;100.00
64141;BME280;50436;50.618;7.932;2022-08-16T05:42:32;95908.47;;;16.11;100.00
64141;BME280;50436;50.618;7.932;2022-08-16T05:44:58;95906.97;;;16.19;100.00
64141;BME280;50436;50.618;7.932;2022-08-16T05:47:27;95914.56;;;16.31;100.00
64141;BME280;50436;50.618;7.932;2022-08-16T05:49:52;95908.50;;;16.39;100.00
64141;BME280;50436;50.618;7.932;2022-08-16T05:52:18;95917.88;;;16.41;100.00
64141;BME280;50436;50.618;7.932;2022-08-16T05:54:44;95914.69;;;16.39;100.00
64141;BME280;50436;50.618;7.932;2022-08-16T05:57:10;95915.31;;;16.50;100.00
64141;BME280;50436;50.618;7.932;2022-08-16T05:59:36;95916.53;;;16.58;100.00
64141;BME280;50436;50.618;7.932;2022-08-16T06:02:03;95912.09;;;16.62;100.00
64141;BME280;50436;50.618;7.932;2022-08-16T06:04:32;95905.50;;;16.68;100.00
64141;BME280;50436;50.618;7.932;2022-08-16T06:06:58;95910.34;;;16.71;100.00
64141;BME280;50436;50.618;7.932;2022-08-16T06:09:28;95908.03;;;16.78;100.00
64141;BME280;50436;50.618;7.932;2022-08-16T06:11:54;95913.44;;;16.78;100.00
64141;BME280;50436;50.618;7.932;2022-08-16T06:14:20;95917.16;;;16.82;100.00
64141;BME280;50436;50.618;7.932;2022-08-16T06:16:45;95921.22;;;16.80;100.00
64141;BME280;50436;50.618;7.932;2022-08-16T06:19:11;95923.53;;;16.86;100.00
64141;BME280;50436;50.618;7.932;2022-08-16T06:21:41;95921.63;;;16.87;100.00
64141;BME280;50436;50.618;7.932;2022-08-16T06:24:07;95925.53;;;16.94;100.00
64141;BME280;50436;50.618;7.932;2022-08-16T06:26:33;95922.66;;;17.05;100.00
64141;BME280;50436;50.618;7.932;2022-08-16T06:28:59;95925.84;;;17.07;100.00
64141;BME280;50436;50.618;7.932;2022-08-16T06:31:33;95920.44;;;17.07;100.00
64141;BME280;50436;50.618;7.932;2022-08-16T06:33:58;95920.81;;;17.14;100.00
64141;BME280;50436;50.618;7.932;2022-08-16T06:36:28;95923.19;;;17.29;100.00
64141;BME280;50436;50.618;7.932;2022-08-16T06:39:02;95919.00;;;17.23;100.00
64141;BME280;50436;50.618;7.932;2022-08-16T06:41:45;95913.28;;;17.24;100.00
64141;BME280;50436;50.618;7.932;2022-08-16T06:44:31;95918.34;;;17.40;100.00
64141;BME280;50436;50.618;7.932;2022-08-16T06:47:00;95912.44;;;17.51;100.00
64141;BME280;50436;50.618;7.932;2022-08-16T06:49:25;95916.53;;;17.49;100.00
64141;BME280;50436;50.618;7.932;2022-08-16T06:51:51;95921.72;;;17.59;100.00
64141;BME280;50436;50.618;7.932;2022-08-16T06:54:22;95919.97;;;17.77;100.00
64141;BME280;50436;50.618;7.932;2022-08-16T06:56:48;95924.97;;;17.84;100.00
64141;BME280;50436;50.618;7.932;2022-08-16T06:59:14;95928.16;;;17.86;100.00
64141;BME280;50436;50.618;7.932;2022-08-16T07:01:47;95922.47;;;17.96;100.00
64141;BME280;50436;50.618;7.932;2022-08-16T07:04:14;95932.41;;;18.00;100.00
64141;BME280;50436;50.618;7.932;2022-08-16T07:06:40;95917.13;;;18.04;100.00
64141;BME280;50436;50.618;7.932;2022-08-16T07:09:10;95922.84;;;18.03;100.00
64141;BME280;50436;50.618;7.932;2022-08-16T07:11:40;95920.81;;;18.08;100.00
64141;BME280;50436;50.618;7.932;2022-08-16T07:14:07;95919.28;;;18.16;100.00
64141;BME280;50436;50.618;7.932;2022-08-16T07:16:39;95921.66;;;18.18;100.00
64141;BME280;50436;50.618;7.932;2022-08-16T07:19:07;95919.38;;;18.33;100.00
64141;BME280;50436;50.618;7.932;2022-08-16T07:21:36;95906.06;;;18.46;100.00
64141;BME280;50436;50.618;7.932;2022-08-16T07:24:03;95917.53;;;18.51;100.00
64141;BME280;50436;50.618;7.932;2022-08-16T07:26:30;95921.97;;;18.70;100.00
64141;BME280;50436;50.618;7.932;2022-08-16T07:28:57;95920.53;;;18.72;100.00
64141;BME280;50436;50.618;7.932;2022-08-16T07:31:22;95916.16;;;18.62;100.00
64141;BME280;50436;50.618;7.932;2022-08-16T07:33:48;95926.75;;;18.73;100.00
64141;BME280;50436;50.618;7.932;2022-08-16T07:36:16;95923.59;;;18.79;100.00
64141;BME280;50436;50.618;7.932;2022-08-16T07:38:45;95929.50;;;18.81;100.00
64141;BME280;50436;50.618;7.932;2022-08-16T07:41:12;95931.75;;;18.88;100.00
64141;BME280;50436;50.618;7.932;2022-08-16T07:43:45;95926.66;;;18.86;100.00
64141;BME280;50436;50.618;7.932;2022-08-16T07:46:13;95933.22;;;19.03;100.00
64141;BME280;50436;50.618;7.932;2022-08-16T07:48:39;95926.25;;;19.19;100.00
64141;BME280;50436;50.618;7.932;2022-08-16T07:51:05;95929.16;;;19.23;100.00
64141;BME280;50436;50.618;7.932;2022-08-16T07:53:32;95924.34;;;19.37;100.00
64141;BME280;50436;50.618;7.932;2022-08-16T07:56:01;95929.19;;;19.48;100.00
64141;BME280;50436;50.618;7.932;2022-08-16T07:58:33;95934.75;;;19.52;100.00
64141;BME280;50436;50.618;7.932;2022-08-16T08:00:59;95928.53;;;19.43;100.00
64141;BME280;50436;50.618;7.932;2022-08-16T08:03:26;95936.56;;;19.57;100.00
64141;BME280;50436;50.618;7.932;2022-08-16T08:05:53;95944.03;;;19.68;100.00
64141;BME280;50436;50.618;7.932;2022-08-16T08:08:19;95943.28;;;19.85;100.00
64141;BME280;50436;50.618;7.932;2022-08-16T08:10:48;95942.47;;;19.93;100.00
64141;BME280;50436;50.618;7.932;2022-08-16T08:13:15;95939.56;;;20.07;100.00
64141;BME280;50436;50.618;7.932;2022-08-16T08:15:41;95938.13;;;20.18;100.00
64141;BME280;50436;50.618;7.932;2022-08-16T08:18:06;95937.75;;;20.37;100.00
64141;BME280;50436;50.618;7.932;2022-08-16T08:20:35;95937.25;;;20.52;100.00
64141;BME280;50436;50.618;7.932;2022-08-16T08:23:03;95944.81;;;20.47;100.00
64141;BME280;50436;50.618;7.932;2022-08-16T08:25:36;95939.56;;;20.24;100.00
64141;BME280;50436;50.618;7.932;2022-08-16T08:28:03;95930.44;;;20.29;100.00
64141;BME280;50436;50.618;7.932;2022-08-16T08:30:28;95942.09;;;20.47;100.00
64141;BME280;50436;50.618;7.932;2022-08-16T08:32:55;95938.16;;;20.74;100.00
64141;BME280;50436;50.618;7.932;2022-08-16T08:35:20;95945.28;;;20.96;100.00
64141;BME280;50436;50.618;7.932;2022-08-16T08:37:46;95945.91;;;21.01;100.00
64141;BME280;50436;50.618;7.932;2022-08-16T08:40:13;95938.19;;;21.03;100.00
64141;BME280;50436;50.618;7.932;2022-08-16T08:42:39;95944.09;;;21.05;100.00
64141;BME280;50436;50.618;7.932;2022-08-16T08:45:13;95936.09;;;21.09;100.00
64141;BME280;50436;50.618;7.932;2022-08-16T08:47:42;95941.66;;;21.12;100.00
64141;BME280;50436;50.618;7.932;2022-08-16T08:50:08;95940.94;;;21.33;100.00
64141;BME280;50436;50.618;7.932;2022-08-16T08:52:34;95946.63;;;21.49;100.00
64141;BME280;50436;50.618;7.932;2022-08-16T08:55:00;95943.13;;;21.39;100.00
64141;BME280;50436;50.618;7.932;2022-08-16T08:57:30;95947.53;;;21.53;100.00
64141;BME280;50436;50.618;7.932;2022-08-16T09:00:17;95950.66;;;21.84;100.00
64141;BME280;50436;50.618;7.932;2022-08-16T09:02:43;95954.41;;;21.80;100.00
64141;BME280;50436;50.618;7.932;2022-08-16T09:05:10;95943.88;;;21.90;100.00
64141;BME280;50436;50.618;7.932;2022-08-16T09:07:37;95955.09;;;21.68;100.00
64141;BME280;50436;50.618;7.932;2022-08-16T09:10:05;95954.25;;;21.76;100.00
64141;BME280;50436;50.618;7.932;2022-08-16T09:12:32;95957.03;;;22.09;100.00
64141;BME280;50436;50.618;7.932;2022-08-16T09:15:06;95958.78;;;22.14;100.00
64141;BME280;50436;50.618;7.932;2022-08-16T09:17:33;95958.16;;;22.29;100.00
64141;BME280;50436;50.618;7.932;2022-08-16T09:19:59;95956.38;;;22.45;100.00
64141;BME280;50436;50.618;7.932;2022-08-16T09:22:26;95951.63;;;22.55;100.00
64141;BME280;50436;50.618;7.932;2022-08-16T09:24:53;95950.78;;;22.75;100.00
64141;BME280;50436;50.618;7.932;2022-08-16T09:27:21;95956.69;;;22.65;100.00
64141;BME280;50436;50.618;7.932;2022-08-16T09:29:47;95961.28;;;22.85;100.00
64141;BME280;50436;50.618;7.932;2022-08-16T09:32:15;95957.63;;;22.81;100.00
64141;BME280;50436;50.618;7.932;2022-08-16T09:34:43;95960.88;;;22.74;100.00
64141;BME280;50436;50.618;7.932;2022-08-16T09:37:09;95959.91;;;22.91;100.00
64141;BME280;50436;50.618;7.932;2022-08-16T09:39:34;95957.88;;;23.00;99.68
64141;BME280;50436;50.618;7.932;2022-08-16T09:42:00;95957.75;;;23.33;97.42
64141;BME280;50436;50.618;7.932;2022-08-16T09:44:27;95964.81;;;23.47;98.40
64141;BME280;50436;50.618;7.932;2022-08-16T09:46:55;95967.31;;;23.52;98.20
64141;BME280;50436;50.618;7.932;2022-08-16T09:49:21;95966.50;;;23.76;96.79
64141;BME280;50436;50.618;7.932;2022-08-16T09:51:50;95967.59;;;23.99;94.90
64141;BME280;50436;50.618;7.932;2022-08-16T09:54:18;95963.13;;;23.67;94.66
64141;BME280;50436;50.618;7.932;2022-08-16T09:56:44;95962.50;;;23.73;93.54
64141;BME280;50436;50.618;7.932;2022-08-16T09:59:10;95959.59;;;24.06;92.26
64141;BME280;50436;50.618;7.932;2022-08-16T10:01:37;95966.09;;;24.02;92.65
64141;BME280;50436;50.618;7.932;2022-08-16T10:04:04;95968.28;;;24.36;91.36
64141;BME280;50436;50.618;7.932;2022-08-16T10:06:30;95965.97;;;24.38;91.18
64141;BME280;50436;50.618;7.932;2022-08-16T10:08:55;95961.75;;;24.41;89.77
64141;BME280;50436;50.618;7.932;2022-08-16T10:11:22;95963.56;;;24.81;91.09
64141;BME280;50436;50.618;7.932;2022-08-16T10:14:07;95964.97;;;24.74;90.96
64141;BME280;50436;50.618;7.932;2022-08-16T10:16:33;95961.44;;;24.74;89.56
64141;BME280;50436;50.618;7.932;2022-08-16T10:18:59;95968.69;;;24.98;89.71
64141;BME280;50436;50.618;7.932;2022-08-16T10:21:25;95961.78;;;25.51;87.94
64141;BME280;50436;50.618;7.932;2022-08-16T10:23:51;95960.09;;;25.78;86.04
64141;BME280;50436;50.618;7.932;2022-08-16T10:26:19;95960.34;;;26.08;84.65
64141;BME280;50436;50.618;7.932;2022-08-16T10:28:47;95958.69;;;26.62;82.89
64141;BME280;50436;50.618;7.932;2022-08-16T10:31:13;95956.63;;;26.78;80.62
64141;BME280;50436;50.618;7.932;2022-08-16T10:33:39;95960.94;;;27.02;79.89
64141;BME280;50436;50.618;7.932;2022-08-16T10:36:05;95962.38;;;26.50;80.29
64141;BME280;50436;50.618;7.932;2022-08-16T10:38:34;95960.06;;;26.75;80.54
64141;BME280;50436;50.618;7.932;2022-08-16T10:41:00;95955.47;;;26.79;78.61
64141;BME280;50436;50.618;7.932;2022-08-16T10:43:26;95966.34;;;26.76;79.63
64141;BME280;50436;50.618;7.932;2022-08-16T10:45:52;95961.94;;;27.63;76.20
64141;BME280;50436;50.618;7.932;2022-08-16T10:48:18;95966.91;;;27.80;73.51
64141;BME280;50436;50.618;7.932;2022-08-16T10:50:43;95963.72;;;27.78;73.25
64141;BME280;50436;50.618;7.932;2022-08-16T10:53:09;95961.28;;;28.29;71.82
64141;BME280;50436;50.618;7.932;2022-08-16T10:55:41;95965.91;;;28.55;63.69
64141;BME280;50436;50.618;7.932;2022-08-16T10:58:10;95964.31;;;27.91;65.50
64141;BME280;50436;50.618;7.932;2022-08-16T11:00:37;95962.25;;;27.84;70.12
64141;BME280;50436;50.618;7.932;2022-08-16T11:03:07;95966.88;;;27.04;71.88
64141;BME280;50436;50.618;7.932;2022-08-16T11:05:36;95963.44;;;26.65;74.05
64141;BME280;50436;50.618;7.932;2022-08-16T11:08:04;95962.94;;;28.34;64.10
64141;BME280;50436;50.618;7.932;2022-08-16T11:10:35;95959.66;;;31.14;46.61
64141;BME280;50436;50.618;7.932;2022-08-16T11:13:01;95964.56;;;33.21;37.77
64141;BME280;50436;50.618;7.932;2022-08-16T11:15:27;95965.91;;;32.98;37.40
64141;BME280;50436;50.618;7.932;2022-08-16T11:17:55;95964.97;;;30.39;44.49
64141;BME280;50436;50.618;7.932;2022-08-16T11:20:21;95969.53;;;29.00;54.83
64141;BME280;50436;50.618;7.932;2022-08-16T11:22:50;95963.16;;;30.97;47.63
64141;BME280;50436;50.618;7.932;2022-08-16T11:25:18;95961.06;;;33.62;34.73
64141;BME280;50436;50.618;7.932;2022-08-16T11:27:44;95957.41;;;34.47;35.46
64141;BME280;50436;50.618;7.932;2022-08-16T11:30:12;95965.78;;;36.81;29.40
64141;BME280;50436;50.618;7.932;2022-08-16T11:32:39;95960.56;;;38.14;28.20
64141;BME280;50436;50.618;7.932;2022-08-16T11:35:12;95952.75;;;39.31;25.95
64141;BME280;50436;50.618;7.932;2022-08-16T11:37:39;95951.75;;;40.19;25.36
64141;BME280;50436;50.618;7.932;2022-08-16T11:40:06;95962.16;;;39.84;25.28
64141;BME280;50436;50.618;7.932;2022-08-16T11:42:32;95967.63;;;37.57;26.85
64141;BME280;50436;50.618;7.932;2022-08-16T11:44:57;95981.91;;;33.32;32.54
64141;BME280;50436;50.618;7.932;2022-08-16T11:47:23;95964.38;;;36.73;30.41
64141;BME280;50436;50.618;7.932;2022-08-16T11:49:48;95975.00;;;32.99;33.41
64141;BME280;50436;50.618;7.932;2022-08-16T11:52:14;95971.75;;;30.63;42.54
64141;BME280;50436;50.618;7.932;2022-08-16T11:54:43;95975.28;;;29.80;47.80
64141;BME280;50436;50.618;7.932;2022-08-16T11:57:09;95982.56;;;28.70;49.17
64141;BME280;50436;50.618;7.932;2022-08-16T11:59:36;95970.66;;;28.92;51.62
64141;BME280;50436;50.618;7.932;2022-08-16T12:02:04;95978.72;;;29.11;46.44
64141;BME280;50436;50.618;7.932;2022-08-16T12:04:32;95964.41;;;31.39;39.03
64141;BME280;50436;50.618;7.932;2022-08-16T12:06:59;95967.91;;;32.07;38.83
64141;BME280;50436;50.618;7.932;2022-08-16T12:09:25;95953.81;;;36.45;28.92
64141;BME280;50436;50.618;7.932;2022-08-16T12:11:50;95952.63;;;39.09;25.81
64141;BME280;50436;50.618;7.932;2022-08-16T12:14:16;95951.28;;;40.55;23.45
64141;BME280;50436;50.618;7.932;2022-08-16T12:16:41;95961.00;;;42.12;21.20
64141;BME280;50436;50.618;7.932;2022-08-16T12:19:07;95955.44;;;41.04;22.63
64141;BME280;50436;50.618;7.932;2022-08-16T12:21:33;95953.97;;;40.02;22.48
64141;BME280;50436;50.618;7.932;2022-08-16T12:23:59;95958.53;;;39.49;23.21
64141;BME280;50436;50.618;7.932;2022-08-16T12:26:24;95956.16;;;41.85;22.87
64141;BME280;50436;50.618;7.932;2022-08-16T12:28:50;95952.72;;;41.99;22.10
64141;BME280;50436;50.618;7.932;2022-08-16T12:31:19;95960.53;;;35.61;27.52
64141;BME280;50436;50.618;7.932;2022-08-16T12:33:44;95968.06;;;32.66;31.22
64141;BME280;50436;50.618;7.932;2022-08-16T12:36:11;95968.75;;;31.57;35.14
64141;BME280;50436;50.618;7.932;2022-08-16T12:38:36;95965.94;;;30.97;36.73
64141;BME280;50436;50.618;7.932;2022-08-16T12:41:02;95973.69;;;30.48;37.58
64141;BME280;50436;50.618;7.932;2022-08-16T12:43:28;95958.78;;;32.10;35.21
64141;BME280;50436;50.618;7.932;2022-08-16T12:45:55;95966.84;;;35.85;30.06
64141;BME280;50436;50.618;7.932;2022-08-16T12:48:28;95958.03;;;39.76;22.90
64141;BME280;50436;50.618;7.932;2022-08-16T12:51:17;95959.13;;;40.26;22.04
64141;BME280;50436;50.618;7.932;2022-08-16T12:53:43;95959.13;;;42.73;20.48
64141;BME280;50436;50.618;7.932;2022-08-16T12:56:10;95964.44;;;42.62;19.54
64141;BME280;50436;50.618;7.932;2022-08-16T12:58:39;95954.34;;;41.41;20.19
64141;BME280;50436;50.618;7.932;2022-08-16T13:01:07;95959.50;;;41.43;21.53
64141;BME280;50436;50.618;7.932;2022-08-16T13:03:33;95954.19;;;42.92;19.58